createdAt,value
2022-08-09T01:24:01.391Z,16.3
2022-08-09T01:33:41.993Z,16.1
2022-08-09T01:43:47.977Z,16.1
2022-08-09T01:53:43.474Z,16
2022-08-09T02:03:43.808Z,15.9
2022-08-09T02:13:55.608Z,15.9
2022-08-09T02:33:58.814Z,15.6
2022-08-09T02:43:54.352Z,15.5
2022-08-09T02:53:52.876Z,15.5
2022-08-09T03:04:13.394Z,15.3
2022-08-09T03:13:54.617Z,15.2
2022-08-09T03:24:04.179Z,15.1
2022-08-09T03:33:53.681Z,15.1
2022-08-09T03:53:48.857Z,15
2022-08-09T04:04:00.699Z,14.8
2022-08-09T04:14:37.936Z,14.7
2022-08-09T04:23:52.486Z,14.6
2022-08-09T04:33:53.323Z,14.7
2022-08-09T04:53:54.252Z,14.8
2022-08-09T05:03:56.767Z,15
2022-08-09T05:13:54.933Z,15.2
2022-08-09T05:43:54.441Z,15.7
2022-08-09T05:53:56.715Z,16
2022-08-09T06:03:58.236Z,17
2022-08-09T06:13:56.691Z,17.5
2022-08-09T06:23:58.329Z,17.8
2022-08-09T06:43:58.460Z,18.7
2022-08-09T07:04:03.836Z,18.2
2022-08-09T07:24:01.105Z,18.8
2022-08-09T07:34:01.955Z,19.6
2022-08-09T08:04:02.413Z,19.8
2022-08-09T08:14:04.712Z,20.3
2022-08-09T08:24:11.643Z,20.5
2022-08-09T08:34:04.084Z,21.1
2022-08-09T08:54:05.128Z,21.5
2022-08-09T08:54:28.158Z,21.5
2022-08-09T09:04:11.128Z,22
2022-08-09T09:14:11.324Z,22.4
2022-08-09T09:24:21.335Z,22.6
2022-08-09T09:34:14.160Z,23.1
2022-08-09T09:44:15.384Z,23.4
2022-08-09T09:54:18.025Z,23.6
2022-08-09T10:04:12.693Z,24.2
2022-08-09T10:14:12.963Z,24.4
2022-08-09T10:24:15.897Z,24.7
2022-08-09T10:44:13.870Z,24.9
2022-08-09T10:54:14.408Z,24.6
2022-08-09T11:14:16.362Z,25.5
2022-08-09T11:24:15.540Z,25.7
2022-08-09T11:34:16.294Z,26.1
2022-08-09T11:44:16.872Z,26.1
2022-08-09T11:54:22.112Z,26
2022-08-09T12:04:20.732Z,26.2
2022-08-09T12:14:18.158Z,26.4
2022-08-09T12:24:18.682Z,26.2
2022-08-09T12:34:19.214Z,26.4
2022-08-09T12:44:24.458Z,26.4
2022-08-09T12:54:20.369Z,26.3
2022-08-09T13:04:21.749Z,26.6
2022-08-09T13:14:38.315Z,26.8
2022-08-09T13:54:25.706Z,26.7
2022-08-09T14:04:24.244Z,26.8
2022-08-09T14:24:32.286Z,26.6
2022-08-09T14:34:27.701Z,26.8
2022-08-09T14:44:32.335Z,27.1
2022-08-09T14:54:27.614Z,27.3
2022-08-09T15:04:26.888Z,27.1
2022-08-09T15:14:27.919Z,27.1
2022-08-09T15:34:33.761Z,27.2
2022-08-09T15:54:38.358Z,26.9
2022-08-09T16:54:34.285Z,26.5
2022-08-09T17:14:31.702Z,26.4
2022-08-09T17:24:32.345Z,26.3
2022-08-09T17:35:01.753Z,26.2
2022-08-09T17:44:39.117Z,26.1
2022-08-09T17:54:34.939Z,25.9
2022-08-09T18:04:34.982Z,25.8
2022-08-09T18:24:36.204Z,25.4
2022-08-09T18:34:36.336Z,25.2
2022-08-09T18:44:36.768Z,25
2022-08-09T18:54:37.010Z,24.7
2022-08-09T19:04:37.543Z,24.5
2022-08-09T19:14:38.283Z,24.2
2022-08-09T19:25:09.343Z,23.9
2022-08-09T19:34:41.743Z,23.6
2022-08-09T19:44:39.889Z,23.2
2022-08-09T20:04:47.749Z,22.8
2022-08-09T20:14:43.796Z,22.6
2022-08-09T20:24:41.866Z,22.3
2022-08-09T20:44:42.691Z,22
2022-08-09T20:54:51.998Z,21.9
2022-08-09T21:05:55.393Z,21.8
2022-08-09T21:14:46.066Z,21.6
2022-08-09T21:24:45.890Z,21.4
2022-08-09T21:34:48.538Z,21.3
2022-08-09T21:54:49.392Z,20.9
2022-08-09T22:14:49.572Z,20.5
2022-08-09T22:24:53.497Z,20.4
2022-08-09T22:34:59.226Z,20.3
2022-08-09T22:54:51.747Z,20
2022-08-09T23:04:53.541Z,19.8
2022-08-09T23:24:53.556Z,19.4
2022-08-09T23:54:54.883Z,19
